createdAt,value
2023-05-02T00:00:40.545Z,3.17
2023-05-02T00:03:08.205Z,3.47
2023-05-02T00:05:35.257Z,3.53
2023-05-02T00:08:01.981Z,3.10
2023-05-02T00:10:28.493Z,2.63
2023-05-02T00:12:54.971Z,3.67
2023-05-02T00:15:21.525Z,3.07
2023-05-02T00:17:48.174Z,3.30
2023-05-02T00:20:14.735Z,4.03
2023-05-02T00:22:41.296Z,3.70
2023-05-02T00:25:08.316Z,2.73
2023-05-02T00:27:34.874Z,2.77
2023-05-02T00:30:01.852Z,3.43
2023-05-02T00:32:28.745Z,2.47
2023-05-02T00:34:55.848Z,4.10
2023-05-02T00:37:26.427Z,3.97
2023-05-02T00:39:52.915Z,3.20
2023-05-02T00:42:19.496Z,3.03
2023-05-02T00:44:46.914Z,2.90
2023-05-02T00:47:15.049Z,3.07
2023-05-02T00:49:42.150Z,3.67
2023-05-02T00:52:09.231Z,3.10
2023-05-02T00:54:39.279Z,2.40
2023-05-02T00:57:06.060Z,2.53
2023-05-02T00:59:36.048Z,3.17
2023-05-02T01:02:22.464Z,3.93
2023-05-02T01:04:59.964Z,2.77
2023-05-02T01:07:51.606Z,3.60
2023-05-02T01:10:43.222Z,2.83
2023-05-02T01:13:17.310Z,2.83
2023-05-02T01:15:45.565Z,3.50
2023-05-02T01:18:15.640Z,2.77
2023-05-02T01:20:44.796Z,2.73
2023-05-02T01:23:23.462Z,3.00
2023-05-02T01:26:00.134Z,2.53
2023-05-02T01:28:43.427Z,2.90
2023-05-02T01:31:11.935Z,2.90
2023-05-02T01:33:40.392Z,3.20
2023-05-02T01:36:08.402Z,3.07
2023-05-02T01:38:36.108Z,3.23
2023-05-02T01:41:05.369Z,2.63
2023-05-02T01:43:35.018Z,3.00
2023-05-02T01:46:04.293Z,3.53
2023-05-02T01:48:31.451Z,2.30
2023-05-02T01:50:58.767Z,2.60
2023-05-02T01:53:28.700Z,3.20
2023-05-02T01:55:57.201Z,3.00
2023-05-02T01:58:28.804Z,3.30
2023-05-02T02:00:59.788Z,3.47
2023-05-02T02:03:28.388Z,4.23
2023-05-02T02:05:56.577Z,2.83
2023-05-02T02:08:24.078Z,2.97
2023-05-02T02:11:00.574Z,3.53
2023-05-02T02:13:33.996Z,2.97
2023-05-02T02:16:04.653Z,3.13
2023-05-02T02:18:36.946Z,3.50
2023-05-02T02:21:07.687Z,2.37
2023-05-02T02:23:36.714Z,3.13
2023-05-02T02:26:05.181Z,4.10
2023-05-02T02:28:31.952Z,3.20
2023-05-02T02:30:58.502Z,2.87
2023-05-02T02:33:30.582Z,3.20
2023-05-02T02:36:08.505Z,3.73
2023-05-02T02:38:44.484Z,3.03
2023-05-02T02:41:31.865Z,3.00
2023-05-02T02:44:14.183Z,3.13
2023-05-02T02:47:19.212Z,3.87
2023-05-02T02:50:09.706Z,3.87
2023-05-02T02:52:52.214Z,3.10
2023-05-02T02:55:29.801Z,3.27
2023-05-02T02:58:07.504Z,3.63
2023-05-02T03:00:35.431Z,3.43
2023-05-02T03:03:02.120Z,3.80
2023-05-02T03:05:29.648Z,3.70
2023-05-02T03:07:58.895Z,3.17
2023-05-02T03:10:25.470Z,3.10
2023-05-02T03:12:55.629Z,3.00
2023-05-02T03:15:41.788Z,3.30
2023-05-02T03:18:10.072Z,3.70
2023-05-02T03:20:36.723Z,3.80
2023-05-02T03:23:03.919Z,2.90
2023-05-02T03:25:30.444Z,3.50
2023-05-02T03:27:57.951Z,2.83
2023-05-02T03:30:24.645Z,2.83
2023-05-02T03:32:51.478Z,3.30
2023-05-02T03:35:18.303Z,3.30
2023-05-02T03:37:46.442Z,3.57
2023-05-02T03:40:13.353Z,3.17
2023-05-02T03:42:41.260Z,3.90
2023-05-02T03:45:18.438Z,3.70
2023-05-02T03:47:46.089Z,3.00
2023-05-02T03:50:12.898Z,3.30
2023-05-02T03:52:39.378Z,2.47
2023-05-02T03:55:07.836Z,3.70
2023-05-02T03:57:34.593Z,2.80
2023-05-02T04:00:01.580Z,3.20
2023-05-02T04:02:38.354Z,3.20
2023-05-02T04:05:08.694Z,2.80
2023-05-02T04:07:36.696Z,2.87
2023-05-02T04:10:06.955Z,3.53
2023-05-02T04:12:39.180Z,2.87
2023-05-02T04:15:06.591Z,3.50
2023-05-02T04:17:33.918Z,3.20
2023-05-02T04:20:03.160Z,3.33
2023-05-02T04:22:33.148Z,4.20
2023-05-02T04:25:03.620Z,2.57
2023-05-02T04:27:30.986Z,2.90
2023-05-02T04:29:58.856Z,3.33
2023-05-02T04:32:27.095Z,3.30
2023-05-02T04:34:55.911Z,3.40
2023-05-02T04:37:23.416Z,3.30
2023-05-02T04:39:50.067Z,2.97
2023-05-02T04:42:25.605Z,3.40
2023-05-02T04:45:12.638Z,3.13
2023-05-02T04:47:40.108Z,3.37
2023-05-02T04:50:07.586Z,2.90
2023-05-02T04:52:35.773Z,2.97
2023-05-02T04:55:02.340Z,2.80
2023-05-02T04:57:28.996Z,3.60
2023-05-02T04:59:58.999Z,2.43
2023-05-02T05:02:27.015Z,3.33
2023-05-02T05:04:54.986Z,3.20
2023-05-02T05:07:21.548Z,3.70
2023-05-02T05:09:52.020Z,3.40
2023-05-02T05:12:21.174Z,3.37
2023-05-02T05:14:48.254Z,3.37
2023-05-02T05:17:14.931Z,3.73
2023-05-02T05:19:42.413Z,3.70
2023-05-02T05:22:09.875Z,4.07
2023-05-02T05:24:38.168Z,3.67
2023-05-02T05:27:06.309Z,3.87
2023-05-02T05:29:33.325Z,3.43
2023-05-02T05:32:00.241Z,3.20
2023-05-02T05:34:27.835Z,3.87
2023-05-02T05:36:57.874Z,4.80
2023-05-02T05:39:25.283Z,3.93
2023-05-02T05:41:54.602Z,4.87
2023-05-02T05:44:22.274Z,3.80
2023-05-02T05:46:49.333Z,3.83
2023-05-02T05:49:16.891Z,3.90
2023-05-02T05:51:44.178Z,4.07
2023-05-02T05:54:11.443Z,4.47
2023-05-02T05:56:38.795Z,4.37
2023-05-02T05:59:17.429Z,4.83
2023-05-02T06:01:43.933Z,4.80
2023-05-02T06:04:11.815Z,4.17
2023-05-02T06:06:41.760Z,3.87
2023-05-02T06:09:08.325Z,4.70
2023-05-02T06:11:37.841Z,3.90
2023-05-02T06:14:04.488Z,5.20
2023-05-02T06:16:31.369Z,5.00
2023-05-02T06:18:57.980Z,4.93
2023-05-02T06:21:24.445Z,4.97
2023-05-02T06:23:50.914Z,4.33
2023-05-02T06:26:17.407Z,5.20
2023-05-02T06:28:44.356Z,5.20
2023-05-02T06:31:11.027Z,5.40
2023-05-02T06:33:37.553Z,4.50
2023-05-02T06:36:04.253Z,4.73
2023-05-02T06:38:30.943Z,5.57
2023-05-02T06:40:57.434Z,4.47
2023-05-02T06:43:24.021Z,5.73
2023-05-02T06:45:54.468Z,5.77
2023-05-02T06:48:21.649Z,5.30
2023-05-02T06:50:49.015Z,4.67
2023-05-02T06:53:15.786Z,4.70
2023-05-02T06:55:42.409Z,5.30
2023-05-02T06:58:09.026Z,5.20
2023-05-02T07:00:35.597Z,4.83
2023-05-02T07:03:02.151Z,5.20
2023-05-02T07:05:29.382Z,5.00
2023-05-02T07:07:55.852Z,6.20
2023-05-02T07:10:22.807Z,5.73
2023-05-02T07:12:49.252Z,5.10
2023-05-02T07:15:16.596Z,5.50
2023-05-02T07:17:43.395Z,5.30
2023-05-02T07:20:10.806Z,5.47
2023-05-02T07:22:37.287Z,5.43
2023-05-02T07:25:04.112Z,6.00
2023-05-02T07:27:30.784Z,5.60
2023-05-02T07:29:57.282Z,5.63
2023-05-02T07:32:26.112Z,6.70
2023-05-02T07:34:56.925Z,5.87
2023-05-02T07:37:23.729Z,5.33
2023-05-02T07:39:50.263Z,6.73
2023-05-02T07:42:16.790Z,5.97
2023-05-02T07:44:43.404Z,6.53
2023-05-02T07:47:09.965Z,6.13
2023-05-02T07:49:36.874Z,6.40
2023-05-02T07:52:04.404Z,5.47
2023-05-02T07:54:30.982Z,7.23
2023-05-02T07:57:01.975Z,7.00
2023-05-02T07:59:28.632Z,6.83
2023-05-02T08:01:55.097Z,5.93
2023-05-02T08:04:21.857Z,7.20
2023-05-02T08:06:48.373Z,6.20
2023-05-02T08:09:14.854Z,6.43
2023-05-02T08:11:41.276Z,6.67
2023-05-02T08:14:08.016Z,6.30
2023-05-02T08:16:34.961Z,6.57
2023-05-02T08:19:01.554Z,6.27
2023-05-02T08:21:28.379Z,5.77
2023-05-02T08:23:58.938Z,6.63
2023-05-02T08:26:26.233Z,6.40
2023-05-02T08:28:53.061Z,7.03
2023-05-02T08:31:19.736Z,6.20
2023-05-02T08:33:46.936Z,7.40
2023-05-02T08:36:18.380Z,7.07
2023-05-02T08:38:46.302Z,6.70
2023-05-02T08:41:19.751Z,7.37
2023-05-02T08:43:47.224Z,6.90
2023-05-02T08:46:15.743Z,7.30
2023-05-02T08:48:45.026Z,7.60
2023-05-02T08:51:14.007Z,7.30
2023-05-02T08:53:41.541Z,6.57
2023-05-02T08:56:09.710Z,7.50
2023-05-02T08:58:40.260Z,8.30
2023-05-02T09:01:15.127Z,7.77
2023-05-02T09:03:47.209Z,7.43
2023-05-02T09:06:16.991Z,6.93
2023-05-02T09:08:45.937Z,7.67
2023-05-02T09:11:13.426Z,6.90
2023-05-02T09:13:42.171Z,7.30
2023-05-02T09:16:14.396Z,8.57
2023-05-02T09:18:42.264Z,7.97
2023-05-02T09:21:12.806Z,8.20
2023-05-02T09:23:45.984Z,7.60
2023-05-02T09:26:13.099Z,6.43
2023-05-02T09:28:50.631Z,6.67
2023-05-02T09:31:43.440Z,7.10
2023-05-02T09:34:13.730Z,6.70
2023-05-02T09:36:46.140Z,6.57
2023-05-02T09:39:15.152Z,7.13
2023-05-02T09:41:47.870Z,6.37
2023-05-02T09:44:17.068Z,6.30
2023-05-02T09:46:45.949Z,6.60
2023-05-02T09:49:12.653Z,7.00
2023-05-02T09:51:39.137Z,7.13
2023-05-02T09:54:05.693Z,6.70
2023-05-02T09:56:32.432Z,6.93
2023-05-02T09:59:15.990Z,8.10
2023-05-02T10:01:42.865Z,6.83
2023-05-02T10:04:16.245Z,7.07
2023-05-02T10:06:44.255Z,7.73
2023-05-02T10:09:14.986Z,7.43
2023-05-02T10:11:44.917Z,7.30
2023-05-02T10:14:12.566Z,7.50
2023-05-02T10:16:48.352Z,6.70
2023-05-02T10:19:22.842Z,6.67
2023-05-02T10:21:50.418Z,6.60
2023-05-02T10:24:17.014Z,6.93
2023-05-02T10:26:44.091Z,7.93
2023-05-02T10:29:11.540Z,6.53
2023-05-02T10:31:41.824Z,7.80
2023-05-02T10:34:11.726Z,6.73
2023-05-02T10:36:38.183Z,7.63
2023-05-02T10:39:05.284Z,8.07
2023-05-02T10:41:34.242Z,8.27
2023-05-02T10:44:02.232Z,8.70
2023-05-02T10:46:36.700Z,10.17
2023-05-02T10:49:08.312Z,10.10
2023-05-02T10:51:36.775Z,11.73
2023-05-02T10:54:22.513Z,11.23
2023-05-02T10:57:03.429Z,12.30
2023-05-02T10:59:34.051Z,12.80
2023-05-02T11:02:01.554Z,12.50
2023-05-02T11:05:00.645Z,12.60
2023-05-02T11:07:28.224Z,13.30
2023-05-02T11:10:17.315Z,12.90
2023-05-02T11:12:50.327Z,11.87
2023-05-02T11:15:25.883Z,12.17
2023-05-02T11:18:13.614Z,12.47
2023-05-02T11:20:44.254Z,13.80
2023-05-02T11:23:13.817Z,13.80
2023-05-02T11:25:43.428Z,13.17
2023-05-02T11:28:38.196Z,12.77
2023-05-02T11:31:05.866Z,12.13
2023-05-02T11:33:32.534Z,12.87
2023-05-02T11:35:59.388Z,12.10
2023-05-02T11:38:35.055Z,13.00
2023-05-02T11:41:02.911Z,14.03
2023-05-02T11:43:31.981Z,12.40
2023-05-02T11:46:00.537Z,12.93
2023-05-02T11:48:27.798Z,13.77
2023-05-02T11:50:56.696Z,13.27
2023-05-02T11:53:29.312Z,12.90
2023-05-02T11:55:59.092Z,13.07
2023-05-02T11:58:29.921Z,13.60
2023-05-02T12:00:57.200Z,13.73
2023-05-02T12:03:30.950Z,12.00
2023-05-02T12:06:10.534Z,13.80
2023-05-02T12:08:37.188Z,11.10
2023-05-02T12:11:03.735Z,13.23
2023-05-02T12:13:30.576Z,13.57
2023-05-02T12:15:57.437Z,11.53
2023-05-02T12:18:25.501Z,12.33
2023-05-02T12:20:53.005Z,12.67
2023-05-02T12:23:21.103Z,11.27
2023-05-02T12:25:49.129Z,13.70
2023-05-02T12:28:19.516Z,12.47
2023-05-02T12:30:48.656Z,12.10
2023-05-02T12:33:16.744Z,11.73
2023-05-02T12:35:43.543Z,11.23
2023-05-02T12:38:10.401Z,12.47
2023-05-02T12:40:37.264Z,11.20
2023-05-02T12:43:07.338Z,12.60
2023-05-02T12:45:34.629Z,11.33
2023-05-02T12:48:02.370Z,11.80
2023-05-02T12:50:37.109Z,10.00
2023-05-02T12:53:03.880Z,10.40
2023-05-02T12:55:32.245Z,10.27
2023-05-02T12:58:07.076Z,10.00
2023-05-02T13:00:36.759Z,9.83
2023-05-02T13:03:04.077Z,9.20
2023-05-02T13:05:30.982Z,9.83
2023-05-02T13:07:58.443Z,8.57
2023-05-02T13:10:26.172Z,8.97
2023-05-02T13:12:53.052Z,8.87
2023-05-02T13:15:19.706Z,9.20
2023-05-02T13:17:47.657Z,8.83
2023-05-02T13:20:14.761Z,9.30
2023-05-02T13:22:41.535Z,8.93
2023-05-02T13:25:09.045Z,9.10
2023-05-02T13:27:35.655Z,8.30
2023-05-02T13:30:04.218Z,7.20
2023-05-02T13:32:33.201Z,9.10
2023-05-02T13:34:59.763Z,8.23
2023-05-02T13:37:26.810Z,9.20
2023-05-02T13:39:53.333Z,8.40
2023-05-02T13:42:19.838Z,9.20
2023-05-02T13:44:46.329Z,8.20
2023-05-02T13:47:12.815Z,7.70
2023-05-02T13:49:39.323Z,8.17
2023-05-02T13:52:05.868Z,7.67
2023-05-02T13:54:32.553Z,6.37
2023-05-02T13:56:59.096Z,6.37
2023-05-02T13:59:25.760Z,6.93
2023-05-02T14:01:52.459Z,7.13
2023-05-02T14:04:19.265Z,4.47
2023-05-02T14:06:46.811Z,4.60
2023-05-02T14:09:13.748Z,4.30
2023-05-02T14:11:40.269Z,4.60
2023-05-02T14:14:07.184Z,4.43
2023-05-02T14:16:35.165Z,4.90
2023-05-02T14:19:01.712Z,4.40
2023-05-02T14:21:28.241Z,5.00
2023-05-02T14:23:54.724Z,5.17
2023-05-02T14:26:21.286Z,4.73
2023-05-02T14:28:48.026Z,4.60
2023-05-02T14:31:14.775Z,4.43
2023-05-02T14:33:41.534Z,4.80
2023-05-02T14:36:08.087Z,4.10
2023-05-02T14:38:34.585Z,4.40
2023-05-02T14:41:02.820Z,4.93
2023-05-02T14:43:29.425Z,4.40
2023-05-02T14:45:56.628Z,3.87
2023-05-02T14:48:23.114Z,4.40
2023-05-02T14:50:49.617Z,3.80
2023-05-02T14:53:16.215Z,3.70
2023-05-02T14:55:43.276Z,3.47
2023-05-02T14:58:10.385Z,3.83
2023-05-02T15:00:37.881Z,3.20
2023-05-02T15:03:07.438Z,3.33
2023-05-02T15:05:36.139Z,3.30
2023-05-02T15:08:03.228Z,3.73
2023-05-02T15:10:29.792Z,3.30
2023-05-02T15:12:56.339Z,4.70
2023-05-02T15:15:25.094Z,3.73
2023-05-02T15:17:52.905Z,3.53
2023-05-02T15:20:20.017Z,3.60
2023-05-02T15:22:46.656Z,4.07
2023-05-02T15:25:13.449Z,3.33
2023-05-02T15:27:39.959Z,3.23
2023-05-02T15:30:07.334Z,3.00
2023-05-02T15:32:33.934Z,3.00
2023-05-02T15:35:00.510Z,3.30
2023-05-02T15:37:27.107Z,3.73
2023-05-02T15:39:53.723Z,3.00
2023-05-02T15:42:20.308Z,4.03
2023-05-02T15:44:46.812Z,3.67
2023-05-02T15:47:13.334Z,3.90
2023-05-02T15:49:40.566Z,4.10
2023-05-02T15:52:07.046Z,3.50
2023-05-02T15:54:33.570Z,3.57
2023-05-02T15:57:00.851Z,3.30
2023-05-02T15:59:27.722Z,3.40
2023-05-02T16:01:54.328Z,3.23
2023-05-02T16:04:20.920Z,3.50
2023-05-02T16:06:47.491Z,3.57
2023-05-02T16:09:14.413Z,2.53
2023-05-02T16:11:41.008Z,3.70
2023-05-02T16:14:07.481Z,3.00
2023-05-02T16:16:34.427Z,3.20
2023-05-02T16:19:00.964Z,2.87
2023-05-02T16:21:27.759Z,2.90
2023-05-02T16:23:54.981Z,3.30
2023-05-02T16:26:21.655Z,3.43
2023-05-02T16:28:48.163Z,4.20
2023-05-02T16:31:15.196Z,4.13
2023-05-02T16:33:42.960Z,4.60
2023-05-02T16:36:09.861Z,3.33
2023-05-02T16:38:36.695Z,3.00
2023-05-02T16:41:05.579Z,3.00
2023-05-02T16:43:32.193Z,3.37
2023-05-02T16:46:03.329Z,3.63
2023-05-02T16:48:30.035Z,3.50
2023-05-02T16:50:57.179Z,2.80
2023-05-02T16:53:24.794Z,3.50
2023-05-02T16:55:51.275Z,2.80
2023-05-02T16:58:17.834Z,3.00
2023-05-02T17:00:44.358Z,2.80
2023-05-02T17:03:11.379Z,3.07
2023-05-02T17:05:38.074Z,3.00
2023-05-02T17:08:04.604Z,3.03
2023-05-02T17:10:31.365Z,3.20
2023-05-02T17:12:58.560Z,3.03
2023-05-02T17:15:25.076Z,3.50
2023-05-02T17:17:51.943Z,4.20
2023-05-02T17:20:20.709Z,3.17
2023-05-02T17:22:48.004Z,3.53
2023-05-02T17:25:15.779Z,3.60
2023-05-02T17:27:42.525Z,3.60
2023-05-02T17:30:09.482Z,3.50
2023-05-02T17:32:37.636Z,4.03
2023-05-02T17:35:04.715Z,3.80
2023-05-02T17:37:31.254Z,3.33
2023-05-02T17:39:57.810Z,3.73
2023-05-02T17:42:24.407Z,2.60
2023-05-02T17:44:52.438Z,3.20
2023-05-02T17:47:19.858Z,3.40
2023-05-02T17:49:49.619Z,3.40
2023-05-02T17:52:16.150Z,3.80
2023-05-02T17:54:42.929Z,3.90
2023-05-02T17:57:10.078Z,3.67
2023-05-02T17:59:39.734Z,4.53
2023-05-02T18:02:09.885Z,3.97
2023-05-02T18:04:36.830Z,4.17
2023-05-02T18:07:05.748Z,4.07
2023-05-02T18:09:32.684Z,3.33
2023-05-02T18:12:00.547Z,3.60
2023-05-02T18:14:27.056Z,3.77
2023-05-02T18:16:53.596Z,3.63
2023-05-02T18:19:20.107Z,2.97
2023-05-02T18:21:46.609Z,3.50
2023-05-02T18:24:13.268Z,2.83
2023-05-02T18:26:39.917Z,3.10
2023-05-02T18:29:06.453Z,4.37
2023-05-02T18:31:33.055Z,3.50
2023-05-02T18:33:59.588Z,4.90
2023-05-02T18:36:28.514Z,3.63
2023-05-02T18:38:55.919Z,4.60
2023-05-02T18:41:22.576Z,3.97
2023-05-02T18:43:49.400Z,3.70
2023-05-02T18:46:16.112Z,4.23
2023-05-02T18:48:43.428Z,3.70
2023-05-02T18:51:10.759Z,4.87
2023-05-02T18:53:37.353Z,4.50
2023-05-02T18:56:04.048Z,5.10
2023-05-02T18:58:30.534Z,5.13
2023-05-02T19:00:57.112Z,4.60
2023-05-02T19:03:24.015Z,4.90
2023-05-02T19:05:51.301Z,5.00
2023-05-02T19:08:18.018Z,5.43
2023-05-02T19:10:44.527Z,5.87
2023-05-02T19:13:10.996Z,4.97
2023-05-02T19:15:37.688Z,6.10
2023-05-02T19:18:04.386Z,5.40
2023-05-02T19:20:30.935Z,5.97
2023-05-02T19:23:10.992Z,7.00
2023-05-02T19:25:44.460Z,6.87
2023-05-02T19:28:12.229Z,6.90
2023-05-02T19:30:42.379Z,6.77
2023-05-02T19:33:09.115Z,6.20
2023-05-02T19:35:37.060Z,7.77
2023-05-02T19:38:03.570Z,8.27
2023-05-02T19:40:30.135Z,7.83
2023-05-02T19:42:56.643Z,7.27
2023-05-02T19:45:23.232Z,6.87
2023-05-02T19:47:49.732Z,6.20
2023-05-02T19:50:16.449Z,6.00
2023-05-02T19:52:44.490Z,5.70
2023-05-02T19:55:11.323Z,6.50
2023-05-02T19:57:37.865Z,8.40
2023-05-02T20:00:05.941Z,8.00
2023-05-02T20:02:39.166Z,6.70
2023-05-02T20:05:06.186Z,7.40
2023-05-02T20:07:32.722Z,7.30
2023-05-02T20:09:59.384Z,7.37
2023-05-02T20:12:26.055Z,6.80
2023-05-02T20:14:52.663Z,7.50
2023-05-02T20:17:19.167Z,7.77
2023-05-02T20:19:45.868Z,6.13
2023-05-02T20:22:12.496Z,7.43
2023-05-02T20:24:39.196Z,6.60
2023-05-02T20:27:05.736Z,7.90
2023-05-02T20:29:32.292Z,7.07
2023-05-02T20:31:59.459Z,6.80
2023-05-02T20:34:26.085Z,6.60
2023-05-02T20:36:53.347Z,8.27
2023-05-02T20:39:22.562Z,10.37
2023-05-02T20:41:50.050Z,8.90
2023-05-02T20:44:22.457Z,9.77
2023-05-02T20:46:49.133Z,10.00
2023-05-02T20:49:15.672Z,9.53
2023-05-02T20:51:42.250Z,9.47
2023-05-02T20:54:08.868Z,8.37
2023-05-02T20:56:35.438Z,8.57
2023-05-02T20:59:02.008Z,8.53
2023-05-02T21:01:28.532Z,8.50
2023-05-02T21:03:57.135Z,9.03
2023-05-02T21:06:23.908Z,8.83
2023-05-02T21:08:50.702Z,8.70
2023-05-02T21:11:17.306Z,7.37
2023-05-02T21:13:44.949Z,7.30
2023-05-02T21:16:16.042Z,8.27
2023-05-02T21:18:42.582Z,8.17
2023-05-02T21:21:09.150Z,8.20
2023-05-02T21:23:35.771Z,7.60
2023-05-02T21:26:02.286Z,7.87
2023-05-02T21:28:29.118Z,6.83
2023-05-02T21:30:55.661Z,7.07
2023-05-02T21:33:22.313Z,7.10
2023-05-02T21:35:55.504Z,6.30
2023-05-02T21:38:22.019Z,7.10
2023-05-02T21:40:48.801Z,7.20
2023-05-02T21:43:15.388Z,7.23
2023-05-02T21:45:45.799Z,6.33
2023-05-02T21:48:13.903Z,6.23
2023-05-02T21:50:42.379Z,7.07
2023-05-02T21:53:09.343Z,7.20
2023-05-02T21:55:41.994Z,6.60
2023-05-02T21:58:09.849Z,6.93
2023-05-02T22:00:38.218Z,7.90
2023-05-02T22:03:11.418Z,7.80
2023-05-02T22:05:41.891Z,8.10
2023-05-02T22:08:09.968Z,7.20
2023-05-02T22:10:41.184Z,7.43
2023-05-02T22:13:12.596Z,7.37
2023-05-02T22:15:43.524Z,6.90
2023-05-02T22:18:10.504Z,6.70
2023-05-02T22:20:37.997Z,6.80
2023-05-02T22:23:04.476Z,7.73
2023-05-02T22:25:31.262Z,6.60
2023-05-02T22:28:01.004Z,7.30
2023-05-02T22:30:27.476Z,6.37
2023-05-02T22:32:54.003Z,7.23
2023-05-02T22:35:21.348Z,7.47
2023-05-02T22:37:47.806Z,7.20
2023-05-02T22:40:14.929Z,8.40
2023-05-02T22:42:41.428Z,7.70
2023-05-02T22:45:09.451Z,6.60
2023-05-02T22:47:36.592Z,8.00
2023-05-02T22:50:05.422Z,7.47
2023-05-02T22:52:37.752Z,5.90
2023-05-02T22:55:09.375Z,8.50
2023-05-02T22:57:36.658Z,8.37
2023-05-02T23:00:05.386Z,7.40
2023-05-02T23:02:32.365Z,7.10
2023-05-02T23:04:59.148Z,6.57
2023-05-02T23:07:25.635Z,6.97
2023-05-02T23:09:52.119Z,6.80
2023-05-02T23:12:18.581Z,7.50
2023-05-02T23:14:45.977Z,7.50
2023-05-02T23:17:12.455Z,7.30
2023-05-02T23:19:39.077Z,7.27
2023-05-02T23:22:05.623Z,6.03
2023-05-02T23:24:32.583Z,6.40
2023-05-02T23:26:59.069Z,7.60
2023-05-02T23:29:25.809Z,7.00
2023-05-02T23:31:54.356Z,6.83
2023-05-02T23:34:21.511Z,6.70
2023-05-02T23:36:48.822Z,6.80
2023-05-02T23:39:15.404Z,7.67
2023-05-02T23:41:42.311Z,6.97
2023-05-02T23:44:08.782Z,6.83
2023-05-02T23:46:35.330Z,5.90
2023-05-02T23:49:01.831Z,6.60
2023-05-02T23:51:28.463Z,6.27
2023-05-02T23:53:54.972Z,6.50
2023-05-02T23:56:21.435Z,6.47
2023-05-02T23:58:47.997Z,6.63
